sensor_id;sensor_type;location;lat;lon;timestamp;pressure;altitude;pressure_sealevel;temperature;humidity
63715;BME280;49858;48.956;9.076;2022-09-09T00:00:55;98350.47;;;22.96;47.38
63715;BME280;49858;48.956;9.076;2022-09-09T00:03:33;98345.75;;;22.09;49.44
63715;BME280;49858;48.956;9.076;2022-09-09T00:06:09;98365.31;;;20.99;52.47
63715;BME280;49858;48.956;9.076;2022-09-09T00:08:48;98359.91;;;21.08;53.11
63715;BME280;49858;48.956;9.076;2022-09-09T00:11:24;98352.19;;;21.77;50.87
63715;BME280;49858;48.956;9.076;2022-09-09T00:13:59;98348.44;;;21.84;51.26
63715;BME280;49858;48.956;9.076;2022-09-09T00:16:32;98354.63;;;21.91;50.26
63715;BME280;49858;48.956;9.076;2022-09-09T00:19:06;98354.81;;;21.03;52.85
63715;BME280;49858;48.956;9.076;2022-09-09T00:21:36;98350.84;;;21.36;52.78
63715;BME280;49858;48.956;9.076;2022-09-09T00:24:15;98342.72;;;22.33;49.56
63715;BME280;49858;48.956;9.076;2022-09-09T00:26:49;98342.13;;;22.25;50.10
63715;BME280;49858;48.956;9.076;2022-09-09T00:29:26;98345.69;;;21.97;50.54
63715;BME280;49858;48.956;9.076;2022-09-09T00:31:59;98344.09;;;22.12;50.52
63715;BME280;49858;48.956;9.076;2022-09-09T00:34:30;98339.81;;;22.07;49.88
63715;BME280;49858;48.956;9.076;2022-09-09T00:36:59;98342.53;;;21.94;50.41
63715;BME280;49858;48.956;9.076;2022-09-09T00:39:32;98341.31;;;21.95;50.63
63715;BME280;49858;48.956;9.076;2022-09-09T00:42:13;98354.78;;;22.01;50.79
63715;BME280;49858;48.956;9.076;2022-09-09T00:44:52;98338.28;;;22.61;48.33
63715;BME280;49858;48.956;9.076;2022-09-09T00:47:44;98332.31;;;22.46;48.31
63715;BME280;49858;48.956;9.076;2022-09-09T00:53:18;98352.16;;;22.93;47.71
63715;BME280;49858;48.956;9.076;2022-09-09T00:55:55;98347.94;;;22.85;47.24
63715;BME280;49858;48.956;9.076;2022-09-09T00:58:27;98348.31;;;23.00;47.14
63715;BME280;49858;48.956;9.076;2022-09-09T01:00:58;98349.66;;;22.95;47.38
63715;BME280;49858;48.956;9.076;2022-09-09T01:03:37;98347.28;;;22.81;47.14
63715;BME280;49858;48.956;9.076;2022-09-09T01:06:14;98355.53;;;23.01;46.98
63715;BME280;49858;48.956;9.076;2022-09-09T01:09:04;98348.72;;;22.86;47.60
63715;BME280;49858;48.956;9.076;2022-09-09T01:11:45;98348.53;;;23.18;46.57
63715;BME280;49858;48.956;9.076;2022-09-09T01:14:24;98347.28;;;23.19;46.19
63715;BME280;49858;48.956;9.076;2022-09-09T01:17:03;98340.19;;;22.51;48.14
63715;BME280;49858;48.956;9.076;2022-09-09T01:19:44;98334.41;;;23.09;46.90
63715;BME280;49858;48.956;9.076;2022-09-09T01:22:22;98336.19;;;22.78;47.46
63715;BME280;49858;48.956;9.076;2022-09-09T01:25:11;98343.47;;;22.88;47.12
63715;BME280;49858;48.956;9.076;2022-09-09T01:28:08;98355.53;;;23.01;46.81
63715;BME280;49858;48.956;9.076;2022-09-09T01:30:40;98350.44;;;23.34;46.14
63715;BME280;49858;48.956;9.076;2022-09-09T01:33:13;98353.66;;;22.82;46.87
63715;BME280;49858;48.956;9.076;2022-09-09T01:35:46;98351.78;;;22.79;46.96
63715;BME280;49858;48.956;9.076;2022-09-09T01:38:18;98354.38;;;23.24;45.75
63715;BME280;49858;48.956;9.076;2022-09-09T01:40:49;98353.03;;;23.03;46.57
63715;BME280;49858;48.956;9.076;2022-09-09T01:43:23;98358.00;;;22.57;46.27
63715;BME280;49858;48.956;9.076;2022-09-09T01:45:54;98357.06;;;23.28;45.40
63715;BME280;49858;48.956;9.076;2022-09-09T01:48:23;98358.41;;;23.23;45.21
63715;BME280;49858;48.956;9.076;2022-09-09T01:51:00;98362.00;;;22.98;46.41
63715;BME280;49858;48.956;9.076;2022-09-09T01:53:28;98359.31;;;23.33;44.94
63715;BME280;49858;48.956;9.076;2022-09-09T01:56:03;98350.34;;;23.00;45.86
63715;BME280;49858;48.956;9.076;2022-09-09T01:58:46;98363.22;;;22.84;46.34
63715;BME280;49858;48.956;9.076;2022-09-09T02:01:25;98356.72;;;22.87;46.73
63715;BME280;49858;48.956;9.076;2022-09-09T02:04:02;98355.25;;;22.83;47.09
63715;BME280;49858;48.956;9.076;2022-09-09T02:06:35;98350.06;;;22.81;46.69
63715;BME280;49858;48.956;9.076;2022-09-09T02:09:17;98362.97;;;22.24;50.80
63715;BME280;49858;48.956;9.076;2022-09-09T02:11:47;98363.72;;;20.98;53.54
63715;BME280;49858;48.956;9.076;2022-09-09T02:14:29;98341.97;;;21.22;54.98
63715;BME280;49858;48.956;9.076;2022-09-09T02:17:01;98366.28;;;20.72;54.72
63715;BME280;49858;48.956;9.076;2022-09-09T02:19:52;98343.31;;;21.50;55.60
63715;BME280;49858;48.956;9.076;2022-09-09T02:22:38;98366.00;;;19.36;57.61
63715;BME280;49858;48.956;9.076;2022-09-09T02:25:08;98357.91;;;20.12;59.06
63715;BME280;49858;48.956;9.076;2022-09-09T02:27:38;98364.31;;;18.61;62.39
63715;BME280;49858;48.956;9.076;2022-09-09T02:30:09;98361.16;;;19.17;61.00
63715;BME280;49858;48.956;9.076;2022-09-09T02:32:43;98363.56;;;19.65;59.39
63715;BME280;49858;48.956;9.076;2022-09-09T02:35:18;98356.56;;;18.76;61.41
63715;BME280;49858;48.956;9.076;2022-09-09T02:37:48;98348.56;;;19.05;59.29
63715;BME280;49858;48.956;9.076;2022-09-09T02:40:18;98354.34;;;18.64;60.82
63715;BME280;49858;48.956;9.076;2022-09-09T02:42:54;98355.81;;;19.77;58.28
63715;BME280;49858;48.956;9.076;2022-09-09T02:45:25;98342.94;;;20.03;56.24
63715;BME280;49858;48.956;9.076;2022-09-09T02:48:00;98339.00;;;20.96;54.81
63715;BME280;49858;48.956;9.076;2022-09-09T02:50:33;98329.34;;;21.33;53.16
63715;BME280;49858;48.956;9.076;2022-09-09T02:53:08;98330.84;;;21.83;52.59
63715;BME280;49858;48.956;9.076;2022-09-09T02:55:43;98325.16;;;22.70;50.61
63715;BME280;49858;48.956;9.076;2022-09-09T02:58:17;98324.34;;;21.86;52.69
63715;BME280;49858;48.956;9.076;2022-09-09T03:00:58;98324.13;;;22.52;50.97
63715;BME280;49858;48.956;9.076;2022-09-09T03:03:28;98324.88;;;22.27;50.98
63715;BME280;49858;48.956;9.076;2022-09-09T03:05:58;98323.19;;;22.00;52.49
63715;BME280;49858;48.956;9.076;2022-09-09T03:08:27;98340.03;;;22.42;51.13
63715;BME280;49858;48.956;9.076;2022-09-09T03:10:58;98331.13;;;22.73;50.64
63715;BME280;49858;48.956;9.076;2022-09-09T03:13:30;98327.91;;;22.03;52.28
63715;BME280;49858;48.956;9.076;2022-09-09T03:16:02;98335.69;;;22.41;50.85
63715;BME280;49858;48.956;9.076;2022-09-09T03:18:36;98334.75;;;22.44;49.85
63715;BME280;49858;48.956;9.076;2022-09-09T03:21:04;98321.63;;;21.99;52.34
63715;BME280;49858;48.956;9.076;2022-09-09T03:23:33;98328.88;;;22.55;49.94
63715;BME280;49858;48.956;9.076;2022-09-09T03:26:02;98325.53;;;22.73;49.70
63715;BME280;49858;48.956;9.076;2022-09-09T03:28:38;98318.06;;;22.53;49.74
63715;BME280;49858;48.956;9.076;2022-09-09T03:31:08;98325.63;;;22.69;50.36
63715;BME280;49858;48.956;9.076;2022-09-09T03:33:39;98331.81;;;21.77;52.96
63715;BME280;49858;48.956;9.076;2022-09-09T03:36:10;98329.06;;;22.48;49.65
63715;BME280;49858;48.956;9.076;2022-09-09T03:38:38;98341.19;;;22.44;49.95
63715;BME280;49858;48.956;9.076;2022-09-09T03:41:07;98335.44;;;21.28;54.22
63715;BME280;49858;48.956;9.076;2022-09-09T03:43:36;98344.88;;;21.67;53.59
63715;BME280;49858;48.956;9.076;2022-09-09T03:46:04;98342.38;;;21.85;52.08
63715;BME280;49858;48.956;9.076;2022-09-09T03:48:36;98343.69;;;20.83;55.05
63715;BME280;49858;48.956;9.076;2022-09-09T03:51:04;98336.75;;;21.24;53.90
63715;BME280;49858;48.956;9.076;2022-09-09T03:53:34;98342.69;;;21.26;52.70
63715;BME280;49858;48.956;9.076;2022-09-09T03:56:02;98338.88;;;20.83;55.01
63715;BME280;49858;48.956;9.076;2022-09-09T03:58:30;98339.44;;;20.95;53.82
63715;BME280;49858;48.956;9.076;2022-09-09T04:01:05;98335.38;;;19.80;55.92
63715;BME280;49858;48.956;9.076;2022-09-09T04:03:37;98331.19;;;19.91;56.12
63715;BME280;49858;48.956;9.076;2022-09-09T04:06:06;98333.81;;;19.55;55.89
63715;BME280;49858;48.956;9.076;2022-09-09T04:08:34;98340.91;;;19.83;55.63
63715;BME280;49858;48.956;9.076;2022-09-09T04:11:03;98345.38;;;19.81;55.62
63715;BME280;49858;48.956;9.076;2022-09-09T04:13:31;98349.59;;;20.68;52.21
63715;BME280;49858;48.956;9.076;2022-09-09T04:16:02;98344.56;;;20.80;52.33
63715;BME280;49858;48.956;9.076;2022-09-09T04:18:33;98345.03;;;20.58;53.48
63715;BME280;49858;48.956;9.076;2022-09-09T04:21:04;98338.69;;;21.27;51.80
63715;BME280;49858;48.956;9.076;2022-09-09T04:23:33;98347.13;;;21.72;50.09
63715;BME280;49858;48.956;9.076;2022-09-09T04:26:03;98350.00;;;21.85;50.10
63715;BME280;49858;48.956;9.076;2022-09-09T04:28:34;98343.72;;;22.26;48.42
63715;BME280;49858;48.956;9.076;2022-09-09T04:31:05;98353.28;;;22.41;48.42
63715;BME280;49858;48.956;9.076;2022-09-09T04:33:34;98352.97;;;22.65;48.00
63715;BME280;49858;48.956;9.076;2022-09-09T04:36:08;98354.84;;;22.42;49.83
63715;BME280;49858;48.956;9.076;2022-09-09T04:38:36;98364.53;;;22.67;48.81
63715;BME280;49858;48.956;9.076;2022-09-09T04:41:04;98357.56;;;22.59;49.09
63715;BME280;49858;48.956;9.076;2022-09-09T04:43:35;98358.56;;;22.52;49.93
63715;BME280;49858;48.956;9.076;2022-09-09T04:46:06;98364.09;;;22.81;49.14
63715;BME280;49858;48.956;9.076;2022-09-09T04:48:34;98359.63;;;22.84;48.96
63715;BME280;49858;48.956;9.076;2022-09-09T04:51:05;98362.06;;;22.69;48.98
63715;BME280;49858;48.956;9.076;2022-09-09T04:53:35;98365.94;;;22.46;49.89
63715;BME280;49858;48.956;9.076;2022-09-09T04:56:06;98367.22;;;22.70;48.80
63715;BME280;49858;48.956;9.076;2022-09-09T04:58:39;98377.59;;;22.99;47.93
63715;BME280;49858;48.956;9.076;2022-09-09T05:01:10;98375.78;;;21.47;48.27
63715;BME280;49858;48.956;9.076;2022-09-09T05:03:41;98380.81;;;21.68;47.48
63715;BME280;49858;48.956;9.076;2022-09-09T05:06:13;98380.41;;;20.85;51.35
63715;BME280;49858;48.956;9.076;2022-09-09T05:08:43;98385.97;;;20.45;51.83
63715;BME280;49858;48.956;9.076;2022-09-09T05:11:19;98393.97;;;20.47;52.32
63715;BME280;49858;48.956;9.076;2022-09-09T05:13:48;98387.00;;;20.35;52.33
63715;BME280;49858;48.956;9.076;2022-09-09T05:16:18;98398.03;;;19.01;54.94
63715;BME280;49858;48.956;9.076;2022-09-09T05:18:49;98387.28;;;19.27;55.48
63715;BME280;49858;48.956;9.076;2022-09-09T05:21:22;98392.84;;;19.00;55.84
63715;BME280;49858;48.956;9.076;2022-09-09T05:23:52;98377.91;;;18.86;56.31
63715;BME280;49858;48.956;9.076;2022-09-09T05:26:23;98386.91;;;18.71;57.59
63715;BME280;49858;48.956;9.076;2022-09-09T05:28:52;98387.88;;;19.38;55.17
63715;BME280;49858;48.956;9.076;2022-09-09T05:31:20;98382.06;;;19.52;54.89
63715;BME280;49858;48.956;9.076;2022-09-09T05:33:50;98390.91;;;19.98;53.36
63715;BME280;49858;48.956;9.076;2022-09-09T05:36:20;98393.13;;;20.06;53.95
63715;BME280;49858;48.956;9.076;2022-09-09T05:38:53;98389.09;;;19.37;54.85
63715;BME280;49858;48.956;9.076;2022-09-09T05:41:21;98390.22;;;20.33;52.89
63715;BME280;49858;48.956;9.076;2022-09-09T05:43:51;98399.41;;;19.90;53.61
63715;BME280;49858;48.956;9.076;2022-09-09T05:46:21;98405.50;;;21.41;50.15
63715;BME280;49858;48.956;9.076;2022-09-09T05:48:52;98408.81;;;21.52;49.53
63715;BME280;49858;48.956;9.076;2022-09-09T05:51:27;98395.19;;;21.38;50.53
63715;BME280;49858;48.956;9.076;2022-09-09T05:53:59;98408.34;;;21.86;49.05
63715;BME280;49858;48.956;9.076;2022-09-09T05:56:30;98395.38;;;22.67;47.27
63715;BME280;49858;48.956;9.076;2022-09-09T05:59:01;98401.31;;;22.69;47.03
63715;BME280;49858;48.956;9.076;2022-09-09T06:01:30;98404.38;;;22.75;46.63
63715;BME280;49858;48.956;9.076;2022-09-09T06:04:01;98399.63;;;22.59;45.64
63715;BME280;49858;48.956;9.076;2022-09-09T06:06:32;98412.03;;;21.34;48.74
63715;BME280;49858;48.956;9.076;2022-09-09T06:09:12;98407.97;;;21.55;49.72
63715;BME280;49858;48.956;9.076;2022-09-09T06:11:42;98398.50;;;21.65;48.46
63715;BME280;49858;48.956;9.076;2022-09-09T06:14:11;98406.91;;;21.65;49.83
63715;BME280;49858;48.956;9.076;2022-09-09T06:16:39;98398.72;;;21.22;51.41
63715;BME280;49858;48.956;9.076;2022-09-09T06:19:16;98405.94;;;21.39;50.51
63715;BME280;49858;48.956;9.076;2022-09-09T06:21:44;98404.00;;;22.60;47.81
63715;BME280;49858;48.956;9.076;2022-09-09T06:24:13;98405.34;;;22.55;47.06
63715;BME280;49858;48.956;9.076;2022-09-09T06:26:43;98405.78;;;22.54;46.45
63715;BME280;49858;48.956;9.076;2022-09-09T06:29:18;98415.97;;;21.86;48.57
63715;BME280;49858;48.956;9.076;2022-09-09T06:31:46;98399.63;;;22.59;46.51
63715;BME280;49858;48.956;9.076;2022-09-09T06:34:19;98399.53;;;21.88;46.97
63715;BME280;49858;48.956;9.076;2022-09-09T06:36:51;98408.97;;;21.78;47.99
63715;BME280;49858;48.956;9.076;2022-09-09T06:39:21;98408.81;;;23.01;45.10
63715;BME280;49858;48.956;9.076;2022-09-09T06:41:49;98418.13;;;22.98;46.71
63715;BME280;49858;48.956;9.076;2022-09-09T06:44:38;98423.97;;;23.55;45.44
63715;BME280;49858;48.956;9.076;2022-09-09T06:47:10;98419.00;;;23.84;45.51
63715;BME280;49858;48.956;9.076;2022-09-09T06:49:40;98426.22;;;23.73;45.96
63715;BME280;49858;48.956;9.076;2022-09-09T06:52:13;98421.50;;;23.44;45.25
63715;BME280;49858;48.956;9.076;2022-09-09T06:54:44;98409.72;;;24.09;44.50
63715;BME280;49858;48.956;9.076;2022-09-09T06:57:13;98419.81;;;23.59;45.52
63715;BME280;49858;48.956;9.076;2022-09-09T07:00:02;98428.75;;;24.05;45.33
63715;BME280;49858;48.956;9.076;2022-09-09T07:02:30;98426.78;;;24.50;44.60
63715;BME280;49858;48.956;9.076;2022-09-09T07:04:59;98417.97;;;24.26;43.95
63715;BME280;49858;48.956;9.076;2022-09-09T07:07:28;98420.31;;;24.27;43.31
63715;BME280;49858;48.956;9.076;2022-09-09T07:10:01;98418.22;;;24.53;42.75
63715;BME280;49858;48.956;9.076;2022-09-09T07:12:30;98424.31;;;24.52;42.36
63715;BME280;49858;48.956;9.076;2022-09-09T07:14:59;98419.94;;;22.76;45.31
63715;BME280;49858;48.956;9.076;2022-09-09T07:17:27;98431.13;;;21.03;50.31
63715;BME280;49858;48.956;9.076;2022-09-09T07:19:58;98429.44;;;21.06;50.61
63715;BME280;49858;48.956;9.076;2022-09-09T07:22:27;98431.47;;;21.05;50.25
63715;BME280;49858;48.956;9.076;2022-09-09T07:24:56;98435.81;;;20.50;52.23
63715;BME280;49858;48.956;9.076;2022-09-09T07:27:26;98437.72;;;20.93;51.58
63715;BME280;49858;48.956;9.076;2022-09-09T07:29:53;98431.25;;;20.96;50.99
63715;BME280;49858;48.956;9.076;2022-09-09T07:32:22;98428.41;;;21.00;51.28
63715;BME280;49858;48.956;9.076;2022-09-09T07:34:50;98429.28;;;21.65;49.54
63715;BME280;49858;48.956;9.076;2022-09-09T07:37:18;98421.25;;;21.51;50.00
63715;BME280;49858;48.956;9.076;2022-09-09T07:39:47;98423.69;;;21.65;49.72
63715;BME280;49858;48.956;9.076;2022-09-09T07:42:17;98429.31;;;21.13;50.41
63715;BME280;49858;48.956;9.076;2022-09-09T07:44:48;98425.03;;;21.25;50.72
63715;BME280;49858;48.956;9.076;2022-09-09T07:47:21;98429.69;;;21.97;49.46
63715;BME280;49858;48.956;9.076;2022-09-09T07:49:51;98435.22;;;21.67;48.73
63715;BME280;49858;48.956;9.076;2022-09-09T07:52:24;98433.75;;;21.63;49.45
63715;BME280;49858;48.956;9.076;2022-09-09T07:54:55;98430.06;;;21.50;49.10
63715;BME280;49858;48.956;9.076;2022-09-09T07:57:24;98421.28;;;21.97;47.51
63715;BME280;49858;48.956;9.076;2022-09-09T07:59:54;98413.53;;;21.88;47.55
63715;BME280;49858;48.956;9.076;2022-09-09T08:02:23;98430.16;;;21.46;48.36
63715;BME280;49858;48.956;9.076;2022-09-09T08:04:52;98437.50;;;21.56;48.58
63715;BME280;49858;48.956;9.076;2022-09-09T08:07:20;98434.97;;;21.94;47.13
63715;BME280;49858;48.956;9.076;2022-09-09T08:09:52;98436.44;;;21.83;47.66
63715;BME280;49858;48.956;9.076;2022-09-09T08:12:25;98428.63;;;22.23;46.75
63715;BME280;49858;48.956;9.076;2022-09-09T08:14:56;98416.41;;;22.46;45.66
63715;BME280;49858;48.956;9.076;2022-09-09T08:17:31;98418.91;;;23.24;44.93
63715;BME280;49858;48.956;9.076;2022-09-09T08:20:04;98414.06;;;22.99;44.38
63715;BME280;49858;48.956;9.076;2022-09-09T08:22:33;98422.72;;;23.43;43.75
63715;BME280;49858;48.956;9.076;2022-09-09T08:25:01;98431.53;;;22.49;45.37
63715;BME280;49858;48.956;9.076;2022-09-09T08:27:35;98434.25;;;22.52;45.10
63715;BME280;49858;48.956;9.076;2022-09-09T08:30:05;98453.59;;;22.01;46.04
63715;BME280;49858;48.956;9.076;2022-09-09T08:32:35;98442.41;;;21.68;46.52
63715;BME280;49858;48.956;9.076;2022-09-09T08:35:07;98455.19;;;21.86;46.41
63715;BME280;49858;48.956;9.076;2022-09-09T08:37:35;98443.09;;;21.73;47.04
63715;BME280;49858;48.956;9.076;2022-09-09T08:40:09;98436.56;;;22.12;45.95
63715;BME280;49858;48.956;9.076;2022-09-09T08:42:48;98429.59;;;23.16;43.90
63715;BME280;49858;48.956;9.076;2022-09-09T08:45:27;98416.41;;;22.88;44.00
63715;BME280;49858;48.956;9.076;2022-09-09T08:48:15;98421.50;;;22.64;44.35
63715;BME280;49858;48.956;9.076;2022-09-09T08:50:49;98414.53;;;22.98;44.06
63715;BME280;49858;48.956;9.076;2022-09-09T08:53:26;98426.13;;;23.25;43.26
63715;BME280;49858;48.956;9.076;2022-09-09T08:55:58;98425.09;;;22.77;44.35
63715;BME280;49858;48.956;9.076;2022-09-09T08:58:48;98423.50;;;23.05;43.27
63715;BME280;49858;48.956;9.076;2022-09-09T09:01:39;98428.75;;;22.90;44.08
63715;BME280;49858;48.956;9.076;2022-09-09T09:04:32;98427.00;;;22.67;43.50
63715;BME280;49858;48.956;9.076;2022-09-09T09:07:12;98425.09;;;23.32;42.61
63715;BME280;49858;48.956;9.076;2022-09-09T09:09:50;98432.25;;;24.97;38.93
63715;BME280;49858;48.956;9.076;2022-09-09T09:12:28;98420.47;;;26.01;37.57
63715;BME280;49858;48.956;9.076;2022-09-09T09:14:59;98436.88;;;25.44;37.55
63715;BME280;49858;48.956;9.076;2022-09-09T09:17:30;98424.19;;;23.73;40.34
63715;BME280;49858;48.956;9.076;2022-09-09T09:19:59;98429.16;;;24.73;38.37
63715;BME280;49858;48.956;9.076;2022-09-09T09:22:32;98432.13;;;24.00;39.70
63715;BME280;49858;48.956;9.076;2022-09-09T09:25:11;98428.53;;;24.34;39.18
63715;BME280;49858;48.956;9.076;2022-09-09T09:27:48;98408.34;;;24.70;38.06
63715;BME280;49858;48.956;9.076;2022-09-09T09:30:20;98410.53;;;24.97;36.36
63715;BME280;49858;48.956;9.076;2022-09-09T09:33:03;98401.03;;;24.16;37.80
63715;BME280;49858;48.956;9.076;2022-09-09T09:35:36;98397.97;;;23.89;38.75
63715;BME280;49858;48.956;9.076;2022-09-09T09:38:16;98396.69;;;27.27;33.17
63715;BME280;49858;48.956;9.076;2022-09-09T09:41:05;98388.28;;;24.37;37.82
63715;BME280;49858;48.956;9.076;2022-09-09T09:43:34;98397.16;;;26.10;34.91
63715;BME280;49858;48.956;9.076;2022-09-09T09:46:19;98389.06;;;24.60;37.80
63715;BME280;49858;48.956;9.076;2022-09-09T09:48:59;98388.75;;;25.11;35.98
63715;BME280;49858;48.956;9.076;2022-09-09T09:51:30;98379.84;;;25.21;37.06
63715;BME280;49858;48.956;9.076;2022-09-09T09:54:13;98401.34;;;23.96;37.97
63715;BME280;49858;48.956;9.076;2022-09-09T09:56:46;98398.22;;;24.16;37.98
63715;BME280;49858;48.956;9.076;2022-09-09T09:59:23;98407.28;;;24.99;37.13
63715;BME280;49858;48.956;9.076;2022-09-09T10:02:18;98414.69;;;24.05;45.72
63715;BME280;49858;48.956;9.076;2022-09-09T10:05:03;98414.44;;;22.72;51.44
63715;BME280;49858;48.956;9.076;2022-09-09T10:07:33;98424.13;;;21.11;48.26
63715;BME280;49858;48.956;9.076;2022-09-09T10:10:04;98412.69;;;21.42;52.35
63715;BME280;49858;48.956;9.076;2022-09-09T10:12:43;98444.31;;;19.49;62.56
63715;BME280;49858;48.956;9.076;2022-09-09T10:15:26;98443.50;;;17.85;70.12
63715;BME280;49858;48.956;9.076;2022-09-09T10:18:03;98421.44;;;18.77;68.76
63715;BME280;49858;48.956;9.076;2022-09-09T10:20:41;98407.84;;;19.63;66.69
63715;BME280;49858;48.956;9.076;2022-09-09T10:23:25;98405.56;;;20.85;66.74
63715;BME280;49858;48.956;9.076;2022-09-09T10:26:16;98403.88;;;20.87;62.35
63715;BME280;49858;48.956;9.076;2022-09-09T10:29:05;98406.44;;;20.98;61.64
63715;BME280;49858;48.956;9.076;2022-09-09T10:31:41;98403.63;;;21.18;57.89
63715;BME280;49858;48.956;9.076;2022-09-09T10:34:33;98415.81;;;21.77;55.68
63715;BME280;49858;48.956;9.076;2022-09-09T10:37:32;98406.00;;;23.27;56.82
63715;BME280;49858;48.956;9.076;2022-09-09T10:40:15;98403.41;;;23.19;51.54
63715;BME280;49858;48.956;9.076;2022-09-09T10:42:48;98404.09;;;23.36;51.85
63715;BME280;49858;48.956;9.076;2022-09-09T10:45:18;98415.53;;;23.04;50.48
63715;BME280;49858;48.956;9.076;2022-09-09T10:48:00;98401.19;;;23.14;48.43
63715;BME280;49858;48.956;9.076;2022-09-09T10:50:50;98400.63;;;23.19;49.56
63715;BME280;49858;48.956;9.076;2022-09-09T10:53:46;98413.66;;;22.59;48.73
63715;BME280;49858;48.956;9.076;2022-09-09T10:56:20;98401.97;;;23.02;47.18
63715;BME280;49858;48.956;9.076;2022-09-09T10:58:52;98424.69;;;22.20;46.71
63715;BME280;49858;48.956;9.076;2022-09-09T11:01:23;98424.88;;;21.97;46.31
63715;BME280;49858;48.956;9.076;2022-09-09T11:03:55;98417.72;;;21.96;47.55
63715;BME280;49858;48.956;9.076;2022-09-09T11:06:30;98423.84;;;22.07;47.95
63715;BME280;49858;48.956;9.076;2022-09-09T11:09:02;98430.94;;;21.47;48.19
63715;BME280;49858;48.956;9.076;2022-09-09T11:11:36;98432.25;;;22.07;48.51
63715;BME280;49858;48.956;9.076;2022-09-09T11:14:12;98432.84;;;21.82;48.25
63715;BME280;49858;48.956;9.076;2022-09-09T11:16:48;98443.97;;;21.37;48.20
63715;BME280;49858;48.956;9.076;2022-09-09T11:19:22;98445.00;;;20.71;48.59
63715;BME280;49858;48.956;9.076;2022-09-09T11:21:55;98436.59;;;20.51;50.75
63715;BME280;49858;48.956;9.076;2022-09-09T11:24:29;98436.34;;;19.98;53.80
63715;BME280;49858;48.956;9.076;2022-09-09T11:27:07;98448.59;;;19.30;57.98
63715;BME280;49858;48.956;9.076;2022-09-09T11:29:46;98438.97;;;18.77;58.85
63715;BME280;49858;48.956;9.076;2022-09-09T11:32:37;98455.03;;;18.97;60.71
63715;BME280;49858;48.956;9.076;2022-09-09T11:35:19;98460.22;;;18.95;59.56
63715;BME280;49858;48.956;9.076;2022-09-09T11:40:47;98472.78;;;18.42;61.92
63715;BME280;49858;48.956;9.076;2022-09-09T11:43:24;98458.56;;;18.32;63.48
63715;BME280;49858;48.956;9.076;2022-09-09T11:45:56;98461.34;;;17.91;64.52
63715;BME280;49858;48.956;9.076;2022-09-09T11:48:32;98443.25;;;18.13;64.78
63715;BME280;49858;48.956;9.076;2022-09-09T11:51:04;98439.63;;;18.17;63.70
63715;BME280;49858;48.956;9.076;2022-09-09T11:53:48;98424.00;;;18.60;63.28
63715;BME280;49858;48.956;9.076;2022-09-09T11:56:29;98422.63;;;18.79;62.88
63715;BME280;49858;48.956;9.076;2022-09-09T11:59:00;98430.75;;;18.97;63.34
63715;BME280;49858;48.956;9.076;2022-09-09T12:01:34;98427.84;;;19.04;62.14
63715;BME280;49858;48.956;9.076;2022-09-09T12:04:14;98417.66;;;19.21;60.25
63715;BME280;49858;48.956;9.076;2022-09-09T12:06:51;98409.19;;;19.79;60.06
63715;BME280;49858;48.956;9.076;2022-09-09T12:09:25;98393.50;;;19.85;58.30
63715;BME280;49858;48.956;9.076;2022-09-09T12:12:07;98391.59;;;19.82;56.38
63715;BME280;49858;48.956;9.076;2022-09-09T12:14:56;98386.16;;;20.38;55.02
63715;BME280;49858;48.956;9.076;2022-09-09T12:17:25;98388.94;;;21.30;53.47
63715;BME280;49858;48.956;9.076;2022-09-09T12:20:01;98398.72;;;20.46;52.54
63715;BME280;49858;48.956;9.076;2022-09-09T12:22:37;98397.91;;;20.49;51.87
63715;BME280;49858;48.956;9.076;2022-09-09T12:25:16;98403.41;;;20.73;50.23
63715;BME280;49858;48.956;9.076;2022-09-09T12:28:00;98390.56;;;21.11;50.34
63715;BME280;49858;48.956;9.076;2022-09-09T12:30:31;98389.66;;;21.34;49.31
63715;BME280;49858;48.956;9.076;2022-09-09T12:33:02;98388.53;;;21.32;47.53
63715;BME280;49858;48.956;9.076;2022-09-09T12:35:36;98392.47;;;21.83;48.21
63715;BME280;49858;48.956;9.076;2022-09-09T12:38:05;98387.50;;;22.62;46.96
63715;BME280;49858;48.956;9.076;2022-09-09T12:40:37;98396.16;;;22.09;46.93
63715;BME280;49858;48.956;9.076;2022-09-09T12:43:19;98390.44;;;22.71;46.09
63715;BME280;49858;48.956;9.076;2022-09-09T12:45:49;98395.22;;;22.58;43.92
63715;BME280;49858;48.956;9.076;2022-09-09T12:48:29;98389.97;;;23.27;41.83
63715;BME280;49858;48.956;9.076;2022-09-09T12:50:58;98377.03;;;22.37;44.56
63715;BME280;49858;48.956;9.076;2022-09-09T12:53:29;98394.59;;;22.08;45.06
63715;BME280;49858;48.956;9.076;2022-09-09T12:55:59;98397.25;;;21.83;45.71
63715;BME280;49858;48.956;9.076;2022-09-09T12:58:30;98387.59;;;22.00;44.80
63715;BME280;49858;48.956;9.076;2022-09-09T13:01:01;98385.75;;;21.64;45.30
63715;BME280;49858;48.956;9.076;2022-09-09T13:03:42;98377.63;;;22.57;44.31
63715;BME280;49858;48.956;9.076;2022-09-09T13:06:19;98373.41;;;22.78;43.65
63715;BME280;49858;48.956;9.076;2022-09-09T13:08:56;98375.25;;;22.98;43.16
63715;BME280;49858;48.956;9.076;2022-09-09T13:11:26;98369.31;;;23.08;43.04
63715;BME280;49858;48.956;9.076;2022-09-09T13:13:58;98361.94;;;23.75;41.82
63715;BME280;49858;48.956;9.076;2022-09-09T13:16:28;98367.72;;;24.06;39.35
63715;BME280;49858;48.956;9.076;2022-09-09T13:18:59;98369.59;;;23.61;39.69
63715;BME280;49858;48.956;9.076;2022-09-09T13:21:32;98379.47;;;24.48;40.00
63715;BME280;49858;48.956;9.076;2022-09-09T13:24:05;98374.63;;;24.48;40.09
63715;BME280;49858;48.956;9.076;2022-09-09T13:26:34;98363.53;;;25.07;37.38
63715;BME280;49858;48.956;9.076;2022-09-09T13:29:16;98370.44;;;24.53;35.78
63715;BME280;49858;48.956;9.076;2022-09-09T13:31:45;98359.97;;;24.54;36.91
63715;BME280;49858;48.956;9.076;2022-09-09T13:34:13;98359.28;;;24.71;36.43
63715;BME280;49858;48.956;9.076;2022-09-09T13:36:46;98354.91;;;24.70;36.61
63715;BME280;49858;48.956;9.076;2022-09-09T13:39:16;98356.69;;;24.33;35.88
63715;BME280;49858;48.956;9.076;2022-09-09T13:41:46;98359.94;;;24.32;36.79